^^
Datos históricos de la estación: Murcia-Puente Tocinos
Diario Informe para Enero 19, 2019 Unidades:  Métrico    Ingés   Ambas
Diario Semanal Mensual Anual
  Máxima: Mínima: Promedio:
Temperatura: 25.2 °C 14.6 °C 19.7 °C
Punto de rocio: 13.5 °C 0.2 °C 6.7 °C
Humedad: 84% 19.8% 48%
Velocidad viento: 20.1km/h 0km/h 7.6km/h
Racha viento: 35.4km/h - -
Viento- - SSO
Presión: 1010.3 hPa 1006.9 hPa -
Precipitación: 0.0 mm    
 
 
Tabla de datos para Enero 19, 2019
Hora Temperatura Punto de rocio Presión Viento Velocidad viento Racha viento Humedad Intensidad lluvia(por hora) Nubes
00:04 16.9 °C 13.4 °C 1009.3 hPa ENE 2.9 km/h 8 km/h 80% 0.0 mm
00:09 16.8 °C 13.4 °C 1009.2 hPa ENE 3 km/h 8 km/h 80.6% 0.0 mm
00:14 16.8 °C 13.5 °C 1009.2 hPa NNE 3.2 km/h 6.4 km/h 81% 0.0 mm
00:19 16.7 °C 13.4 °C 1009.2 hPa NNO 3.2 km/h 8 km/h 80.8% 0.0 mm
00:24 16.7 °C 13.4 °C 1009.1 hPa NNO 3.2 km/h 8 km/h 81% 0.0 mm
00:29 16.6 °C 13.3 °C 1009.1 hPa NNO 3.1 km/h 8 km/h 81% 0.0 mm
00:34 16.4 °C 13.2 °C 1009.1 hPa NE 2.9 km/h 7.4 km/h 81% 0.0 mm
00:39 16.4 °C 13.3 °C 1009.1 hPa NE 3.3 km/h 8 km/h 81.8% 0.0 mm
00:44 16.3 °C 13.1 °C 1009.1 hPa Este 3.9 km/h 6.4 km/h 81.3% 0.0 mm
00:49 16.2 °C 12.8 °C 1009.1 hPa SE 3.9 km/h 8 km/h 80% 0.0 mm
00:54 16.2 °C 12.8 °C 1008.9 hPa SE 3.9 km/h 9.5 km/h 80.3% 0.0 mm
00:59 16.2 °C 12.9 °C 1008.9 hPa NNO 3.9 km/h 9.7 km/h 81% 0.0 mm
01:04 16.1 °C 12.9 °C 1009.2 hPa NNO 3.9 km/h 9.7 km/h 81.4% 0.0 mm
01:09 15.9 °C 12.9 °C 1009.2 hPa NNO 3.2 km/h 5.8 km/h 82% 0.0 mm
01:14 15.9 °C 12.8 °C 1009.2 hPa NO 2.2 km/h 8.7 km/h 82.2% 0.0 mm
01:19 15.7 °C 12.8 °C 1009.2 hPa Oeste 3.2 km/h 9.7 km/h 82.4% 0.0 mm
01:24 15.7 °C 12.8 °C 1009.1 hPa Oeste 4.7 km/h 9.7 km/h 83% 0.0 mm
01:29 15.6 °C 12.7 °C 1009.1 hPa ONO 4.1 km/h 8 km/h 83% 0.0 mm
01:34 15.6 °C 12.7 °C 1009.2 hPa ONO 3.2 km/h 8 km/h 83% 0.0 mm
01:39 15.6 °C 12.9 °C 1009.2 hPa ONO 2.9 km/h 4.8 km/h 84% 0.0 mm
01:44 15.6 °C 12.9 °C 1009.2 hPa OSO 2.2 km/h 4.7 km/h 84% 0.0 mm
01:49 15.7 °C 13 °C 1009.2 hPa SSE 2.2 km/h 8.4 km/h 84% 0.0 mm
01:54 15.7 °C 12.8 °C 1009.2 hPa Sur 2.2 km/h 10 km/h 82.5% 0.0 mm
01:59 15.7 °C 12.5 °C 1009.2 hPa SSO 3.7 km/h 9.7 km/h 81.4% 0.0 mm
02:04 15.7 °C 12.3 °C 1009.2 hPa Sur 5.8 km/h 9.7 km/h 80.3% 0.0 mm
02:09 15.6 °C 12.1 °C 1009.1 hPa SSE 5.5 km/h 9.7 km/h 80% 0.0 mm
02:14 15.5 °C 12.1 °C 1009.1 hPa SSE 5 km/h 9.7 km/h 80% 0.0 mm
02:19 15.6 °C 12.2 °C 1009.1 hPa SSE 4.9 km/h 8.4 km/h 80% 0.0 mm
02:24 15.6 °C 12.2 °C 1009.0 hPa SSE 4.7 km/h 9.5 km/h 80% 0.0 mm
02:29 15.6 °C 12.2 °C 1009.0 hPa SSE 5.1 km/h 9.7 km/h 80% 0.0 mm
02:34 15.7 °C 12.3 °C 1009.0 hPa SSO 5.8 km/h 11.1 km/h 80.2% 0.0 mm
02:39 15.8 °C 12.4 °C 1009.0 hPa SSO 5.5 km/h 11.3 km/h 80.4% 0.0 mm
02:44 15.9 °C 12.4 °C 1009.0 hPa SSO 5 km/h 8 km/h 80% 0.0 mm
02:49 15.9 °C 12.5 °C 1009.0 hPa SO 4.3 km/h 8 km/h 80.1% 0.0 mm
02:54 16 °C 12.5 °C 1009.0 hPa SO 3.2 km/h 8 km/h 80% 0.0 mm
02:59 15.9 °C 12.3 °C 1009.0 hPa SO 1.9 km/h 3.7 km/h 79% 0.0 mm
03:04 15.9 °C 12.3 °C 1009.0 hPa Calm   3.2 km/h 79% 0.0 mm
03:09 15.8 °C 12.2 °C 1008.9 hPa Calm     79% 0.0 mm
03:14 15.8 °C 12.3 °C 1008.9 hPa Calm   5.6 km/h 79.8% 0.0 mm
03:19 15.7 °C 12.4 °C 1008.9 hPa Calm   5 km/h 80.5% 0.0 mm
03:24 15.7 °C 12.4 °C 1008.8 hPa Calm   6.4 km/h 81% 0.0 mm
03:29 15.6 °C 12.3 °C 1008.8 hPa OSO 1.1 km/h 7.4 km/h 81% 0.0 mm
03:34 15.6 °C 12.3 °C 1008.8 hPa OSO 2.9 km/h 8 km/h 81% 0.0 mm
03:39 15.5 °C 12.3 °C 1008.7 hPa OSO 3 km/h 8 km/h 81% 0.0 mm
03:44 15.6 °C 12.3 °C 1008.7 hPa OSO 3.2 km/h 8.4 km/h 81% 0.0 mm
03:49 15.6 °C 12.3 °C 1008.7 hPa OSO 3.9 km/h 9.5 km/h 80.7% 0.0 mm
03:54 15.6 °C 12.2 °C 1008.5 hPa OSO 5 km/h 11.1 km/h 80.1% 0.0 mm
03:59 15.6 °C 12.2 °C 1008.5 hPa OSO 5.6 km/h 11.3 km/h 80.1% 0.0 mm
04:04 15.6 °C 12.2 °C 1008.5 hPa SO 6.5 km/h 8 km/h 80% 0.0 mm
04:09 15.6 °C 12.1 °C 1008.4 hPa SSO 5.5 km/h 8.4 km/h 79.9% 0.0 mm
04:14 15.5 °C 11.9 °C 1008.4 hPa SSO 3.9 km/h 8 km/h 79% 0.0 mm
04:19 15.4 °C 11.9 °C 1008.4 hPa SO 3.9 km/h 8 km/h 79.7% 0.0 mm
04:24 15.4 °C 11.9 °C 1008.2 hPa SO 3.9 km/h 6.4 km/h 80% 0.0 mm
04:29 15.3 °C 11.6 °C 1008.2 hPa SE 4.2 km/h 17.2 km/h 78.9% 0.0 mm
04:34 14.8 °C 11.2 °C 1008.5 hPa SSE 4.7 km/h 17.7 km/h 79.6% 0.0 mm
04:39 14.6 °C 11.4 °C 1008.5 hPa SSO 6.4 km/h 14.5 km/h 81.2% 0.0 mm
04:44 14.7 °C 11.6 °C 1008.5 hPa SO 9.5 km/h 11.3 km/h 82% 0.0 mm
04:49 14.8 °C 11.7 °C 1008.5 hPa SO 8.4 km/h 10 km/h 81.7% 0.0 mm
04:54 15 °C 11.8 °C 1008.2 hPa SSO 6.5 km/h 9.7 km/h 80.9% 0.0 mm
04:59 15.2 °C 11.7 °C 1008.2 hPa Sur 6.7 km/h 11.9 km/h 79.7% 0.0 mm
05:04 15.2 °C 11.5 °C 1008.3 hPa Sur 6.9 km/h 11.9 km/h 78.8% 0.0 mm
05:09 15.2 °C 11.4 °C 1008.3 hPa SSO 7.2 km/h 11.3 km/h 77.9% 0.0 mm
05:14 15.3 °C 11.3 °C 1008.3 hPa Sur 7.6 km/h 11.3 km/h 77% 0.0 mm
05:19 15.3 °C 11.2 °C 1008.3 hPa SSE 7.1 km/h 11.3 km/h 77% 0.0 mm
05:24 15.2 °C 11 °C 1008.3 hPa SSE 6.5 km/h 10 km/h 76.2% 0.0 mm
05:29 15.1 °C 10.6 °C 1008.3 hPa Sur 6.2 km/h 11.1 km/h 74.6% 0.0 mm
05:34 15 °C 10.1 °C 1008.3 hPa Sur 5.8 km/h 11.3 km/h 72.7% 0.0 mm
05:39 15 °C 10 °C 1008.3 hPa Sur 6.5 km/h 13.7 km/h 72% 0.0 mm
05:44 15 °C 9.9 °C 1008.3 hPa SSO 7.6 km/h 14.8 km/h 71.5% 0.0 mm
05:49 15.1 °C 9.8 °C 1008.4 hPa SO 8.4 km/h 14.8 km/h 71% 0.0 mm
05:54 15.1 °C 9.7 °C 1008.4 hPa SO 10 km/h 14.8 km/h 69.8% 0.0 mm
05:59 15.2 °C 9.5 °C 1008.4 hPa OSO 9.4 km/h 14.5 km/h 68.5% 0.0 mm
06:04 15.3 °C 9.4 °C 1008.4 hPa OSO 8.7 km/h 14.5 km/h 68% 0.0 mm
06:09 15.2 °C 9.2 °C 1008.2 hPa OSO 8.1 km/h 14.5 km/h 67.5% 0.0 mm
06:14 15.2 °C 8.9 °C 1008.2 hPa SO 6.9 km/h 12.9 km/h 66.1% 0.0 mm
06:19 15.2 °C 9 °C 1008.5 hPa SO 6.7 km/h 11.3 km/h 66.5% 0.0 mm
06:24 15.3 °C 9.2 °C 1008.5 hPa SSO 6.5 km/h 8 km/h 67% 0.0 mm
06:29 15.3 °C 9.2 °C 1008.5 hPa SSO 5.3 km/h 8 km/h 67% 0.0 mm
06:34 15.3 °C 9.4 °C 1008.5 hPa OSO 3.2 km/h 7.4 km/h 67.7% 0.0 mm
06:39 15.3 °C 9.4 °C 1008.3 hPa ONO 3.1 km/h 8 km/h 68% 0.0 mm
06:44 15.3 °C 9.4 °C 1008.3 hPa Oeste 2.9 km/h 8 km/h 68% 0.0 mm
06:49 15.3 °C 9.4 °C 1008.4 hPa Oeste 3.3 km/h 8 km/h 68% 0.0 mm
06:54 15.2 °C 9.3 °C 1008.4 hPa Oeste 3.9 km/h 8 km/h 68% 0.0 mm
06:59 15.2 °C 9.3 °C 1008.4 hPa OSO 4.2 km/h 8 km/h 68% 0.0 mm
07:04 15.2 °C 9.2 °C 1008.5 hPa OSO 4.6 km/h 8 km/h 67.6% 0.0 mm
07:09 15.2 °C 9.1 °C 1008.5 hPa OSO 3.8 km/h 4.8 km/h 67% 0.0 mm
07:14 15.2 °C 9.5 °C 1008.5 hPa SSO 2.2 km/h 7.4 km/h 68.6% 0.0 mm
07:19 15.2 °C 9.6 °C 1008.6 hPa SSO 2.5 km/h 8 km/h 69% 0.0 mm
07:24 15.2 °C 9.2 °C 1008.6 hPa Oeste 2.9 km/h 7.4 km/h 67.4% 0.0 mm
07:29 15.2 °C 8.7 °C 1008.6 hPa ONO 3 km/h 8 km/h 65.3% 0.0 mm
07:34 15.2 °C 8.9 °C 1008.8 hPa NO 3.2 km/h 8 km/h 66.1% 0.0 mm
07:39 15.2 °C 9.7 °C 1008.8 hPa Este 3.1 km/h 8 km/h 69.9% 0.0 mm
07:44 15.2 °C 9.7 °C 1008.8 hPa Este 2.9 km/h 8 km/h 69.8% 0.0 mm
07:49 15.1 °C 9 °C 1008.9 hPa Este 1.8 km/h 5.8 km/h 67.1% 0.0 mm
07:54 15.2 °C 8.8 °C 1008.9 hPa Calm   6.4 km/h 65.6% 0.0 mm
07:59 15.3 °C 8.4 °C 1008.9 hPa SO 1.5 km/h 8 km/h 63.5% 0.0 mm
08:04 15.4 °C 8.5 °C 1009.0 hPa SO 3.9 km/h 8 km/h 63.4% 0.0 mm
08:09 15.5 °C 9.2 °C 1009.0 hPa SO 4.2 km/h 8 km/h 66.2% 0.0 mm
08:14 15.6 °C 9.5 °C 1009.0 hPa SO 4.7 km/h 8 km/h 67% 0.0 mm
08:19 15.7 °C 9.6 °C 1009.1 hPa SO 4.1 km/h 8 km/h 67% 0.0 mm
08:24 15.8 °C 9.6 °C 1009.1 hPa Sur 3.2 km/h 8.7 km/h 66.6% 0.0 mm
08:29 15.8 °C 8.7 °C 1009.1 hPa Sur 4.2 km/h 11.1 km/h 62.4% 0.0 mm
08:34 16 °C 7.9 °C 1009.1 hPa Sur 5.8 km/h 13 km/h 58.6% 0.0 mm
08:39 16.2 °C 6.1 °C 1009.1 hPa SO 6.4 km/h 15.6 km/h 51.3% 0.0 mm
08:44 16.5 °C 5.9 °C 1009.1 hPa SO 7.6 km/h 16.1 km/h 49.6% 0.0 mm
08:49 16.7 °C 5.9 °C 1009.2 hPa SO 7.6 km/h 14.5 km/h 49% 0.0 mm
08:54 16.8 °C 6 °C 1009.2 hPa SO 7.6 km/h 11.9 km/h 48.9% 0.0 mm
08:59 16.9 °C 5.7 °C 1009.2 hPa OSO 6.9 km/h 11.3 km/h 47.8% 0.0 mm
09:04 17.1 °C 5.3 °C 1009.3 hPa OSO 5.8 km/h 10.3 km/h 45.8% 0.0 mm
09:09 17.1 °C 4.9 °C 1009.3 hPa OSO 6 km/h 11.3 km/h 44.5% 0.0 mm
09:14 17.3 °C 4.8 °C 1009.3 hPa OSO 6.5 km/h 13.7 km/h 43.7% 0.0 mm
09:19 17.5 °C 4.1 °C 1009.4 hPa OSO 6.9 km/h 19 km/h 41.2% 0.0 mm
09:24 17.7 °C 3.8 °C 1009.4 hPa OSO 7.6 km/h 19.3 km/h 39.6% 0.0 mm
09:29 17.9 °C 4.1 °C 1009.4 hPa OSO 8 km/h 16.1 km/h 40% 0.0 mm
09:34 18.1 °C 5.6 °C 1009.5 hPa SSO 8.7 km/h 11.9 km/h 44.1% 0.0 mm
09:39 18 °C 5.9 °C 1009.5 hPa Sur 8 km/h 11.3 km/h 45% 0.0 mm
09:44 18.1 °C 5.6 °C 1009.5 hPa Sur 6.9 km/h 11.3 km/h 44% 0.0 mm
09:49 18.2 °C 4.1 °C 1009.6 hPa ONO 6.2 km/h 14.8 km/h 39.1% 0.0 mm
09:54 18.5 °C 3.3 °C 1009.6 hPa Oeste 5 km/h 16.7 km/h 36.4% 0.0 mm
09:59 18.7 °C 3.7 °C 1009.6 hPa SO 6 km/h 16.1 km/h 37.2% 0.0 mm
10:04 18.8 °C 4.4 °C 1009.6 hPa SSE 7.6 km/h 14.5 km/h 38.6% 0.0 mm
10:09 18.9 °C 3.9 °C 1009.5 hPa Sur 7.9 km/h 15.6 km/h 37.1% 0.0 mm
10:14 18.9 °C 4.2 °C 1009.5 hPa SSO 8.4 km/h 16.1 km/h 37.8% 0.0 mm
10:19 19.2 °C 4.8 °C 1009.5 hPa SSE 7.8 km/h 12.9 km/h 38.9% 0.0 mm
10:24 19.3 °C 4.6 °C 1009.5 hPa SSO 6.9 km/h 11.9 km/h 37.9% 0.0 mm
10:29 19.4 °C 4.8 °C 1009.5 hPa SO 6.8 km/h 11.3 km/h 38.1% 0.0 mm
10:34 19.6 °C 3.3 °C 1009.5 hPa Oeste 6.5 km/h 20.4 km/h 34.1% 0.0 mm
10:39 19.8 °C 2.6 °C 1009.4 hPa SO 7.8 km/h 20.9 km/h 32% 0.0 mm
10:44 20.1 °C 2.8 °C 1009.4 hPa OSO 10 km/h 19.3 km/h 32% 0.0 mm
10:49 20.4 °C 3.1 °C 1009.4 hPa SO 9.1 km/h 13 km/h 32% 0.0 mm
10:54 20.6 °C 2.9 °C 1009.4 hPa SSO 7.6 km/h 13.7 km/h 31.1% 0.0 mm
10:59 20.7 °C 2.8 °C 1009.4 hPa SO 7.9 km/h 16.7 km/h 30.7% 0.0 mm
11:04 20.8 °C 2.6 °C 1009.4 hPa Oeste 8.4 km/h 19 km/h 30% 0.0 mm
11:09 20.7 °C 2.6 °C 1009.3 hPa Oeste 9 km/h 19.3 km/h 30.2% 0.0 mm
11:14 20.7 °C 2.6 °C 1009.3 hPa Oeste 10 km/h 15.6 km/h 30.2% 0.0 mm
11:19 20.8 °C 2.7 °C 1009.3 hPa OSO 9.4 km/h 16.7 km/h 30.1% 0.0 mm
11:24 20.9 °C 2.6 °C 1009.2 hPa SO 8.4 km/h 18.5 km/h 29.9% 0.0 mm
11:29 21.1 °C 2.8 °C 1009.2 hPa Oeste 8.4 km/h 19.3 km/h 29.9% 0.0 mm
11:34 21.3 °C 2.7 °C 1009.2 hPa ONO 8.4 km/h 13 km/h 29.4% 0.0 mm
11:39 21.4 °C 2.7 °C 1009.2 hPa ONO 7.8 km/h 13 km/h 29.3% 0.0 mm
11:44 21.6 °C 2.4 °C 1009.2 hPa Oeste 6.9 km/h 16.7 km/h 28.3% 0.0 mm
11:49 21.6 °C 2.3 °C 1009.2 hPa ONO 6.9 km/h 20.4 km/h 28% 0.0 mm
11:54 21.7 °C 2.4 °C 1009.1 hPa Oeste 6.9 km/h 20.9 km/h 28% 0.0 mm
11:59 21.8 °C 2.3 °C 1009.1 hPa SSO 7.5 km/h 19.3 km/h 27.6% 0.0 mm
12:04 21.9 °C 2.2 °C 1009.1 hPa SSO 8.4 km/h 14.8 km/h 27.3% 0.0 mm
12:09 21.9 °C 2.4 °C 1008.9 hPa Oeste 8.1 km/h 14.5 km/h 27.6% 0.0 mm
12:14 22.1 °C 2.2 °C 1008.9 hPa SO 7.6 km/h 20.4 km/h 27% 0.0 mm
12:19 22.2 °C 2 °C 1008.9 hPa OSO 8.3 km/h 20.9 km/h 26.6% 0.0 mm
12:24 22.1 °C 2.1 °C 1008.9 hPa OSO 9.5 km/h 20.9 km/h 26.7% 0.0 mm
12:29 22.2 °C 2 °C 1008.9 hPa NNO 9.2 km/h 23.7 km/h 26.3% 0.0 mm
12:34 22.3 °C 1.7 °C 1008.9 hPa NO 8.7 km/h 24.1 km/h 25.7% 0.0 mm
12:39 22.3 °C 1.9 °C 1008.8 hPa ONO 9.2 km/h 24.1 km/h 26% 0.0 mm
12:44 22.5 °C 2.5 °C 1008.8 hPa NNO 10 km/h 16.1 km/h 26.9% 0.0 mm
12:49 22.8 °C 2.2 °C 1008.8 hPa NNE 8.9 km/h 14.8 km/h 25.8% 0.0 mm
12:54 22.9 °C 2.4 °C 1008.6 hPa NO 6.9 km/h 23.7 km/h 26% 0.0 mm
12:59 22.8 °C 2 °C 1008.6 hPa ONO 8 km/h 24.1 km/h 25.4% 0.0 mm
13:04 23 °C 2.3 °C 1008.6 hPa NNO 9.5 km/h 20.9 km/h 25.8% 0.0 mm
13:09 23.1 °C 2 °C 1008.5 hPa NNE 8.5 km/h 19.3 km/h 25.1% 0.0 mm
13:14 23.1 °C 2.1 °C 1008.5 hPa SE 6.9 km/h 11.1 km/h 25.1% 0.0 mm
13:19 23.2 °C 2.1 °C 1008.5 hPa SSO 6.8 km/h 14.8 km/h 25.1% 0.0 mm
13:24 23.6 °C 2.1 °C 1008.4 hPa Oeste 6.5 km/h 22.5 km/h 24.4% 0.0 mm
13:29 23.6 °C 1.4 °C 1008.4 hPa OSO 7.8 km/h 22.5 km/h 23.2% 0.0 mm
13:34 23.4 °C 1.2 °C 1008.4 hPa Oeste 10 km/h 20.4 km/h 23.2% 0.0 mm
13:39 23.4 °C 1.5 °C 1008.3 hPa SSO 9.1 km/h 22.2 km/h 23.8% 0.0 mm
13:44 23.6 °C 1.3 °C 1008.3 hPa SO 7.6 km/h 24.5 km/h 23.1% 0.0 mm
13:49 23.6 °C 1.2 °C 1008.3 hPa Oeste 9.9 km/h 25.6 km/h 23% 0.0 mm
13:54 23.7 °C 1.4 °C 1008.3 hPa SO 13.7 km/h 25.7 km/h 23.1% 0.0 mm
13:59 23.8 °C 1.5 °C 1008.3 hPa Sur 11.9 km/h 24.1 km/h 23.1% 0.0 mm
14:04 24.1 °C 1.7 °C 1008.3 hPa Oeste 9.5 km/h 18.5 km/h 23% 0.0 mm
14:09 24.2 °C 1.7 °C 1008.0 hPa OSO 8.8 km/h 19.3 km/h 23% 0.0 mm
14:14 24.3 °C 1.8 °C 1008.0 hPa Oeste 7.6 km/h 14.8 km/h 23% 0.0 mm
14:19 24.3 °C 1.5 °C 1008.0 hPa Oeste 8.6 km/h 29.6 km/h 22.4% 0.0 mm
14:24 24.2 °C 0.9 °C 1008.0 hPa SO 10.3 km/h 30.6 km/h 21.8% 0.0 mm
14:29 24.2 °C 0.5 °C 1008.0 hPa OSO 12.6 km/h 30.6 km/h 21.1% 0.0 mm
14:34 24.3 °C 1.1 °C 1008.0 hPa Oeste 16.1 km/h 30.6 km/h 21.8% 0.0 mm
14:39 24.7 °C 1.1 °C 1007.8 hPa NO 13.8 km/h 22.5 km/h 21.3% 0.0 mm
14:44 24.8 °C 0.4 °C 1007.8 hPa ONO 10 km/h 22.5 km/h 20.3% 0.0 mm
14:49 24.7 °C 0.7 °C 1007.8 hPa NO 9.8 km/h 25.9 km/h 20.7% 0.0 mm
14:54 24.7 °C 0.9 °C 1007.8 hPa NNO 9.5 km/h 25.7 km/h 21% 0.0 mm
14:59 24.4 °C 0.6 °C 1007.8 hPa North 10.7 km/h 24.1 km/h 21% 0.0 mm
15:04 24.4 °C 0.8 °C 1007.8 hPa NNE 12.2 km/h 19.3 km/h 21.2% 0.0 mm
15:09 24.6 °C 0.8 °C 1007.6 hPa NNO 11.2 km/h 18.5 km/h 21% 0.0 mm
15:14 24.8 °C 0.6 °C 1007.6 hPa NNO 9.5 km/h 27.4 km/h 20.4% 0.0 mm
15:19 24.9 °C 0.4 °C 1007.6 hPa ONO 11 km/h 28.2 km/h 20% 0.0 mm
15:24 25.2 °C 0.5 °C 1007.5 hPa ONO 13.7 km/h 27.4 km/h 19.9% 0.0 mm
15:29 25 °C 0.3 °C 1007.5 hPa Oeste 12.7 km/h 20.9 km/h 19.8% 0.0 mm
15:34 25 °C 0.4 °C 1007.5 hPa ONO 11.1 km/h 25.6 km/h 20% 0.0 mm
15:39 24.8 °C 0.3 °C 1007.5 hPa ONO 11.1 km/h 25.9 km/h 20% 0.0 mm
15:44 24.7 °C 0.2 °C 1007.5 hPa Oeste 11.1 km/h 22.5 km/h 20% 0.0 mm
15:49 24.6 °C 0.3 °C 1007.5 hPa Oeste 10.2 km/h 20.9 km/h 20.2% 0.0 mm
15:54 24.8 °C 0.9 °C 1007.3 hPa NO 8.7 km/h 20.9 km/h 21% 0.0 mm
15:59 24.8 °C 1 °C 1007.3 hPa NO 9 km/h 20.9 km/h 21% 0.0 mm
16:04 24.9 °C 2.2 °C 1007.4 hPa North 9.5 km/h 16.1 km/h 23% 0.0 mm
16:09 24.6 °C 5.2 °C 1007.4 hPa ESE 8.5 km/h 14.8 km/h 28.8% 0.0 mm
16:14 24.1 °C 5.3 °C 1007.4 hPa SE 6.9 km/h 15.6 km/h 29.6% 0.0 mm
16:19 23.8 °C 4.7 °C 1007.4 hPa SE 8.1 km/h 16.1 km/h 29% 0.0 mm
16:24 24 °C 4.9 °C 1007.2 hPa SSE 10 km/h 15.6 km/h 29% 0.0 mm
16:29 24.1 °C 4.8 °C 1007.2 hPa SE 9.1 km/h 16.1 km/h 28.7% 0.0 mm
16:34 24.3 °C 4.4 °C 1007.2 hPa SO 7.6 km/h 17.2 km/h 27.5% 0.0 mm
16:39 24.7 °C 4 °C 1007.1 hPa SSE 8 km/h 19 km/h 26.2% 0.0 mm
16:44 24.6 °C 5.7 °C 1007.1 hPa ESE 8.7 km/h 24.1 km/h 29.8% 0.0 mm
16:49 24.6 °C 6.3 °C 1007.1 hPa SE 8.6 km/h 24.1 km/h 31% 0.0 mm
16:54 24.7 °C 6.2 °C 1007.1 hPa SE 8.4 km/h 18.5 km/h 30.6% 0.0 mm
16:59 24.6 °C 5.4 °C 1007.1 hPa SSE 9 km/h 19.3 km/h 29.1% 0.0 mm
17:04 24.5 °C 5.5 °C 1007.1 hPa Sur 10 km/h 19.8 km/h 29.6% 0.0 mm
17:09 24.6 °C 5.4 °C 1007.0 hPa OSO 9.5 km/h 20.9 km/h 29.1% 0.0 mm
17:14 24.5 °C 5.3 °C 1007.0 hPa Sur 8.7 km/h 17.2 km/h 29% 0.0 mm
17:19 24.6 °C 5.4 °C 1007.0 hPa Sur 9 km/h 22.5 km/h 29% 0.0 mm
17:24 24.7 °C 5.4 °C 1006.9 hPa SSO 9.5 km/h 22.5 km/h 29% 0.0 mm
17:29 24.5 °C 5.3 °C 1006.9 hPa Sur 10.1 km/h 20.4 km/h 29.1% 0.0 mm
17:34 24.3 °C 5.7 °C 1007.0 hPa SSE 11.1 km/h 22.2 km/h 30.1% 0.0 mm
17:39 24.2 °C 6 °C 1007.0 hPa SE 11.4 km/h 22.5 km/h 30.9% 0.0 mm
17:44 24.2 °C 6.4 °C 1007.0 hPa ESE 11.9 km/h 25.9 km/h 31.9% 0.0 mm
17:49 23.9 °C 6.9 °C 1007.1 hPa ESE 12.7 km/h 31.7 km/h 33.6% 0.0 mm
17:54 23.6 °C 7.7 °C 1007.1 hPa ESE 14 km/h 34.6 km/h 36% 0.0 mm
17:59 23.3 °C 8.2 °C 1007.1 hPa ESE 15.8 km/h 35.4 km/h 38% 0.0 mm
18:04 23 °C 8.4 °C 1007.1 hPa ESE 18.4 km/h 35.2 km/h 39.3% 0.0 mm
18:09 22.8 °C 8.5 °C 1007.1 hPa SE 19 km/h 35.4 km/h 40% 0.0 mm
18:14 22.8 °C 8.7 °C 1007.1 hPa ESE 20.1 km/h 32.2 km/h 40.7% 0.0 mm
18:19 22.7 °C 8.9 °C 1007.4 hPa ESE 18.2 km/h 27 km/h 41.2% 0.0 mm
18:24 22.6 °C 9.1 °C 1007.4 hPa ESE 14.8 km/h 29.6 km/h 42.3% 0.0 mm
18:29 22.6 °C 9.4 °C 1007.4 hPa ESE 16.4 km/h 30.6 km/h 43% 0.0 mm
18:34 22.6 °C 9.8 °C 1007.5 hPa ESE 19 km/h 30.6 km/h 44.2% 0.0 mm
18:39 22.7 °C 10.1 °C 1007.5 hPa ESE 18.6 km/h 33.5 km/h 45% 0.0 mm
18:44 22.6 °C 10.1 °C 1007.5 hPa SE 18 km/h 33.8 km/h 45.4% 0.0 mm
18:49 22.5 °C 10.3 °C 1007.5 hPa ESE 18.7 km/h 33.5 km/h 46% 0.0 mm
18:54 22.7 °C 10.1 °C 1007.4 hPa ESE 19.8 km/h 33.8 km/h 45% 0.0 mm
18:59 22.8 °C 10.3 °C 1007.4 hPa SE 18.4 km/h 27.8 km/h 45.3% 0.0 mm
19:04 22.7 °C 10 °C 1007.4 hPa SE 16.4 km/h 27.4 km/h 44.3% 0.0 mm
19:09 22.8 °C 9.5 °C 1007.3 hPa SE 16.3 km/h 25.9 km/h 42.7% 0.0 mm
19:14 23 °C 9.2 °C 1007.3 hPa SE 16.1 km/h 25.7 km/h 41.5% 0.0 mm
19:19 23.2 °C 8.5 °C 1007.5 hPa SE 14.9 km/h 28.2 km/h 39% 0.0 mm
19:24 23.2 °C 8.2 °C 1007.5 hPa SSE 13 km/h 28.2 km/h 38.3% 0.0 mm
19:29 23.2 °C 7.3 °C 1007.5 hPa SSE 13.4 km/h 29.6 km/h 36.2% 0.0 mm
19:34 23.1 °C 7 °C 1007.7 hPa SSE 14 km/h 29 km/h 35.4% 0.0 mm
19:39 23 °C 6.9 °C 1007.7 hPa SSE 14.6 km/h 27.4 km/h 35.4% 0.0 mm
19:44 23.1 °C 6.8 °C 1007.7 hPa SE 15.6 km/h 24.1 km/h 35% 0.0 mm
19:49 23.2 °C 6.9 °C 1007.7 hPa SSE 14.2 km/h 24.1 km/h 35% 0.0 mm
19:54 23.1 °C 6.8 °C 1007.7 hPa SE 11.9 km/h 24.1 km/h 35% 0.0 mm
19:59 23 °C 6.8 °C 1007.7 hPa SSE 11.9 km/h 19.3 km/h 35.2% 0.0 mm
20:04 22.9 °C 6.9 °C 1007.9 hPa SSE 11.9 km/h 19.3 km/h 35.6% 0.0 mm
20:09 22.8 °C 6.6 °C 1007.9 hPa SSE 12 km/h 22.2 km/h 35.1% 0.0 mm
20:14 22.7 °C 6.5 °C 1007.9 hPa SE 12.2 km/h 24.5 km/h 35% 0.0 mm
20:19 22.5 °C 6.3 °C 1008.0 hPa SE 12.2 km/h 24.1 km/h 35% 0.0 mm
20:24 22.3 °C 6.1 °C 1008.0 hPa SE 12.2 km/h 24.1 km/h 35% 0.0 mm
20:29 22.3 °C 5.8 °C 1008.0 hPa SE 12.5 km/h 20.9 km/h 34.3% 0.0 mm
20:34 22.2 °C 5.5 °C 1008.3 hPa SE 13 km/h 20.9 km/h 34% 0.0 mm
20:39 22.2 °C 5.5 °C 1008.3 hPa SE 12 km/h 19.3 km/h 34% 0.0 mm
20:44 22.1 °C 5.5 °C 1008.3 hPa SSE 10.3 km/h 19.3 km/h 34% 0.0 mm
20:49 21.8 °C 5.2 °C 1008.4 hPa SSE 10.6 km/h 22.2 km/h 33.9% 0.0 mm
20:54 21.7 °C 5.2 °C 1008.4 hPa SSE 11.1 km/h 22.5 km/h 34% 0.0 mm
20:59 21.6 °C 5.1 °C 1008.4 hPa SSE 11.1 km/h 18.5 km/h 34% 0.0 mm
21:04 21.6 °C 5 °C 1008.5 hPa SE 11.1 km/h 19.3 km/h 34% 0.0 mm
21:09 21.5 °C 5.2 °C 1008.5 hPa ESE 10.1 km/h 16.1 km/h 34.5% 0.0 mm
21:14 21.3 °C 4.9 °C 1008.5 hPa SE 8.7 km/h 12.9 km/h 34.1% 0.0 mm
21:19 21.2 °C 4.8 °C 1008.7 hPa ESE 8 km/h 13 km/h 34.3% 0.0 mm
21:24 21.1 °C 5 °C 1008.7 hPa ESE 6.9 km/h 12.9 km/h 35% 0.0 mm
21:29 21 °C 4.9 °C 1008.7 hPa ESE 6.8 km/h 10 km/h 35% 0.0 mm
21:34 20.9 °C 4.8 °C 1008.7 hPa SE 6.5 km/h 9.7 km/h 35% 0.0 mm
21:39 20.8 °C 4.8 °C 1008.7 hPa SE 5.9 km/h 9.7 km/h 35% 0.0 mm
21:44 20.8 °C 4.4 °C 1008.7 hPa SE 5 km/h 13 km/h 34.2% 0.0 mm
21:49 20.8 °C 4.3 °C 1009.0 hPa SE 5.5 km/h 13 km/h 34% 0.0 mm
21:54 20.8 °C 4.3 °C 1009.0 hPa SE 6.5 km/h 11.9 km/h 34% 0.0 mm
21:59 20.6 °C 4.2 °C 1009.0 hPa SE 6.5 km/h 11.3 km/h 34.1% 0.0 mm
22:04 20.5 °C 4.1 °C 1009.2 hPa SE 6.5 km/h 11.1 km/h 34% 0.0 mm
22:09 20.3 °C 3.9 °C 1009.2 hPa ESE 6.5 km/h 11.3 km/h 34% 0.0 mm
22:14 20.3 °C 3.9 °C 1009.2 hPa SE 6.5 km/h 9.7 km/h 34% 0.0 mm
22:19 20.3 °C 3.6 °C 1009.4 hPa SE 5.8 km/h 10 km/h 33.1% 0.0 mm
22:24 20.4 °C 3.3 °C 1009.4 hPa SSE 4.7 km/h 9.7 km/h 32.5% 0.0 mm
22:29 20.4 °C 3.1 °C 1009.4 hPa SSE 4.7 km/h 8 km/h 31.8% 0.0 mm
22:34 20.5 °C 3.1 °C 1009.6 hPa SSE 4.7 km/h 8 km/h 31.7% 0.0 mm
22:39 20.5 °C 2.9 °C 1009.6 hPa SSE 4 km/h 5.8 km/h 31.2% 0.0 mm
22:44 20.5 °C 2.6 °C 1009.6 hPa Sur 2.9 km/h 13 km/h 30.6% 0.0 mm
22:49 20.6 °C 2.4 °C 1009.8 hPa Sur 4 km/h 12.9 km/h 30% 0.0 mm
22:54 20.6 °C 2.4 °C 1009.8 hPa Sur 5.8 km/h 9.7 km/h 30% 0.0 mm
22:59 20.6 °C 2.4 °C 1009.8 hPa SSE 5 km/h 8 km/h 30% 0.0 mm
23:04 20.6 °C 2.8 °C 1010.0 hPa SSE 3.9 km/h 8 km/h 30.8% 0.0 mm
23:09 20.6 °C 2.9 °C 1010.0 hPa SSE 2.4 km/h 3.2 km/h 31% 0.0 mm
23:14 20.4 °C 3.1 °C 1010.0 hPa Calm   4.7 km/h 31.8% 0.0 mm
23:19 20.2 °C 3.5 °C 1010.2 hPa NNO 1.1 km/h 7.4 km/h 33.1% 0.0 mm
23:24 19.9 °C 3.6 °C 1010.2 hPa NNO 2.9 km/h 8 km/h 34.1% 0.0 mm
23:29 19.7 °C 3.9 °C 1010.2 hPa NNE 3.3 km/h 8 km/h 35.4% 0.0 mm
23:34 19.4 °C 4.2 °C 1010.3 hPa North 3.9 km/h 8 km/h 36.6% 0.0 mm
23:39 19.3 °C 4.2 °C 1010.3 hPa NNO 3.9 km/h 9.5 km/h 37.1% 0.0 mm
23:44 19.1 °C 4.4 °C 1010.3 hPa North 3.9 km/h 9.7 km/h 38% 0.0 mm
23:49 19 °C 4.3 °C 1010.3 hPa NNO 4.2 km/h 8 km/h 38% 0.0 mm
23:54 18.9 °C 4.3 °C 1010.3 hPa North 4.7 km/h 8 km/h 38% 0.0 mm
23:59 18.9 °C 4.3 °C 1010.3 hPa NNO 4.1 km/h 8 km/h 38% 0.0 mm
Murcia-Puente Tocinos, Espa?a
Compliments of Weather Underground - 3.25 mb

La estación de MeteoMurcia.com, publica sus datos en los siguientes proyectos:

Weather Underground PWS IMURCIAP2 Meteoclimatic www.awekas.at

W3Counter
Web Analytics